Framingham So, Massachusetts
Current Conditions -  °F | °C
As of 8:56 PM on Sunday 23 Nov 2014 (Local Time) from KBED Reporting Station
Broken Clouds Broken Clouds  
Wind Chill: 44°   Ceiling: 11000
Heat Index: 47°   Visibility: 10mi
Dew Point: 33°   Wind: 7mph
Humidity: 59%   Direction: 180°S
Pressure: 30.11"   Gusts: NA
Location:  42.3203°N, 71.4404°W
Report Text: KBED 240156Z 18006KT 10SM BKN110 08/01 A3011 RMK AO2 SLP212 T00830006
Loading
Personal Weather Stations






























Interactive Weather Map New forecast layout! Learn more

10-Day Weather Forecast

Advertisements
Track Severe Weather on mobile